createdAt,value
2022-11-25T00:04:37.296Z,9.38
2022-11-25T00:09:39.128Z,16.17
2022-11-25T00:14:41.972Z,11.23
2022-11-25T00:19:43.554Z,13.98
2022-11-25T00:24:45.211Z,12.63
2022-11-25T00:29:46.898Z,13.00
2022-11-25T00:34:48.626Z,10.38
2022-11-25T00:39:50.434Z,9.43
2022-11-25T00:44:52.622Z,3.88
2022-11-25T00:49:54.980Z,5.15
2022-11-25T00:54:56.679Z,4.38
2022-11-25T00:59:58.357Z,4.60
2022-11-25T01:05:00.126Z,1.52
2022-11-25T01:10:01.727Z,3.47
2022-11-25T01:15:03.647Z,2.70
2022-11-25T01:20:05.998Z,2.40
2022-11-25T01:25:08.065Z,2.60
2022-11-25T01:30:12.899Z,2.72
2022-11-25T01:35:14.741Z,2.85
2022-11-25T01:40:17.028Z,5.57
2022-11-25T01:45:37.345Z,6.38
2022-11-25T01:50:40.035Z,7.22
2022-11-25T01:55:48.583Z,9.55
2022-11-25T02:00:53.407Z,11.43
2022-11-25T02:06:17.233Z,10.93
2022-11-25T02:11:21.603Z,10.68
2022-11-25T02:16:23.399Z,11.50
2022-11-25T02:21:33.863Z,10.80
2022-11-25T02:26:35.795Z,10.45
2022-11-25T02:31:37.614Z,8.20
2022-11-25T02:36:39.460Z,12.85
2022-11-25T02:41:46.445Z,8.60
2022-11-25T02:46:48.464Z,9.02
2022-11-25T02:51:50.098Z,9.43
2022-11-25T02:56:52.531Z,10.20
2022-11-25T03:01:54.406Z,12.52
2022-11-25T03:06:56.063Z,13.02
2022-11-25T03:12:17.701Z,9.98
2022-11-25T03:22:21.243Z,9.13
2022-11-25T03:27:22.906Z,7.30
2022-11-25T03:32:24.788Z,8.55
2022-11-25T03:37:26.644Z,9.27
2022-11-25T03:42:28.449Z,6.57
2022-11-25T03:47:31.345Z,8.80
2022-11-25T03:52:33.233Z,7.72
2022-11-25T03:57:35.453Z,7.80
2022-11-25T04:02:37.320Z,10.15
2022-11-25T04:07:39.070Z,12.18
2022-11-25T04:12:48.513Z,11.23
2022-11-25T04:17:57.217Z,7.53
2022-11-25T04:22:59.341Z,8.32
2022-11-25T04:28:03.172Z,7.85
2022-11-25T04:33:08.326Z,6.57
2022-11-25T04:38:10.226Z,11.50
2022-11-25T04:43:13.541Z,8.30
2022-11-25T04:48:21.713Z,10.82
2022-11-25T04:53:23.669Z,4.82
2022-11-25T04:58:44.127Z,6.97
2022-11-25T05:03:54.481Z,5.95
2022-11-25T05:08:59.936Z,7.15
2022-11-25T05:14:02.086Z,6.70
2022-11-25T05:19:04.099Z,8.30
2022-11-25T05:24:06.027Z,8.23
2022-11-25T05:29:10.169Z,7.90
2022-11-25T05:34:12.632Z,6.82
2022-11-25T05:39:14.542Z,5.15
2022-11-25T05:44:36.710Z,6.35
2022-11-25T05:49:38.654Z,6.10
2022-11-25T05:54:40.493Z,5.70
2022-11-25T05:59:43.642Z,6.68
2022-11-25T06:04:54.247Z,4.63
2022-11-25T06:10:01.508Z,7.22
2022-11-25T06:15:06.741Z,3.53
2022-11-25T06:20:11.014Z,7.80
2022-11-25T06:25:12.954Z,5.40
2022-11-25T06:30:17.039Z,4.38
2022-11-25T06:35:26.021Z,6.77
2022-11-25T06:40:31.220Z,5.20
2022-11-25T06:45:33.539Z,4.18
2022-11-25T06:50:35.135Z,5.00
2022-11-25T06:55:36.891Z,5.50
2022-11-25T07:00:38.561Z,5.15
2022-11-25T07:05:40.133Z,4.78
2022-11-25T07:10:41.725Z,3.47
2022-11-25T07:15:43.521Z,2.83
2022-11-25T07:20:45.144Z,3.28
2022-11-25T07:25:46.814Z,4.85
2022-11-25T07:31:22.713Z,4.05
2022-11-25T07:36:11.777Z,5.40
2022-11-25T07:41:15.820Z,4.65
2022-11-25T07:46:21.998Z,5.78
2022-11-25T07:51:29.790Z,4.55
2022-11-25T07:56:34.106Z,8.23
2022-11-25T08:01:35.860Z,4.97
2022-11-25T08:06:40.500Z,7.15
2022-11-25T08:11:42.702Z,5.38
2022-11-25T08:16:45.420Z,3.60
2022-11-25T08:21:50.047Z,7.65
2022-11-25T08:26:52.218Z,8.52
2022-11-25T08:31:54.087Z,8.15
2022-11-25T08:36:55.733Z,4.15
2022-11-25T08:41:57.506Z,7.75
2022-11-25T10:45:43.014Z,18.95
2022-11-25T10:51:05.100Z,15.20
2022-11-25T10:56:12.510Z,29.05
2022-11-25T11:01:22.303Z,19.35
2022-11-25T11:06:35.315Z,21.45
2022-11-25T11:11:49.076Z,12.80
2022-11-25T11:16:56.364Z,16.88
2022-11-25T11:22:16.171Z,11.90
2022-11-25T11:27:25.500Z,13.43
2022-11-25T11:32:29.227Z,16.58
2022-11-25T11:37:36.899Z,14.57
2022-11-25T11:42:59.174Z,14.55
2022-11-25T11:48:13.285Z,15.18
2022-11-25T11:53:30.396Z,11.13
2022-11-25T11:58:57.545Z,15.30
2022-11-25T12:04:20.953Z,15.32
2022-11-25T12:09:25.145Z,11.05
2022-11-25T12:14:50.923Z,11.80
2022-11-25T12:19:58.863Z,15.25
2022-11-25T12:25:09.950Z,10.15
2022-11-25T12:30:16.469Z,10.95
2022-11-25T12:35:57.383Z,11.02
2022-11-25T12:46:24.740Z,21.63
2022-11-25T12:51:54.424Z,11.43
2022-11-25T12:57:22.702Z,14.95
2022-11-25T13:02:42.636Z,12.23
2022-11-25T13:08:13.766Z,9.30
2022-11-25T13:13:36.703Z,11.05
2022-11-25T13:18:43.494Z,13.02
2022-11-25T13:23:49.013Z,18.98
2022-11-25T13:28:52.225Z,10.85
2022-11-25T13:34:09.305Z,23.83
2022-11-25T13:39:16.739Z,18.77
2022-11-25T13:44:25.551Z,13.27
2022-11-25T13:49:32.811Z,10.95
2022-11-25T13:54:55.359Z,9.48
2022-11-25T14:00:05.845Z,14.95
2022-11-25T14:05:27.239Z,17.92
2022-11-25T14:10:46.028Z,10.20
2022-11-25T14:16:09.538Z,22.17
2022-11-25T14:21:21.508Z,14.50
2022-11-25T14:26:48.791Z,18.73
2022-11-25T14:31:59.739Z,7.63
2022-11-25T14:37:12.159Z,9.18
2022-11-25T14:42:17.871Z,14.00
2022-11-25T14:47:28.198Z,17.90
2022-11-25T14:52:35.908Z,14.82
2022-11-25T14:57:43.926Z,11.05
2022-11-25T15:02:57.127Z,35.70
2022-11-25T15:08:08.566Z,13.38
2022-11-25T15:13:24.842Z,13.35
2022-11-25T15:18:26.645Z,15.25
2022-11-25T15:23:34.915Z,14.45
2022-11-25T15:28:39.079Z,15.65
2022-11-25T15:33:42.593Z,17.88
2022-11-25T15:38:46.417Z,13.30
2022-11-25T15:43:52.455Z,14.38
2022-11-25T15:48:58.704Z,15.75
2022-11-25T15:54:05.584Z,14.57
2022-11-25T15:59:40.729Z,16.77
2022-11-25T16:04:43.553Z,17.30
2022-11-25T16:09:51.378Z,14.38
2022-11-25T16:14:53.054Z,18.45
2022-11-25T16:19:54.788Z,25.13
2022-11-25T16:25:02.182Z,21.30
2022-11-25T16:30:04.428Z,24.85
2022-11-25T16:35:15.706Z,30.40
2022-11-25T16:40:19.027Z,24.83
2022-11-25T16:45:26.423Z,25.10
2022-11-25T16:50:28.282Z,27.80
2022-11-25T16:55:30.921Z,29.38
2022-11-25T17:00:32.596Z,23.10
2022-11-25T17:05:36.902Z,24.83
2022-11-25T17:10:39.915Z,34.10
2022-11-25T17:15:41.683Z,30.38
2022-11-25T17:20:44.406Z,28.60
2022-11-25T17:25:49.416Z,19.98
2022-11-25T17:30:51.232Z,21.48
2022-11-25T17:35:52.978Z,20.95
2022-11-25T17:40:54.853Z,18.48
2022-11-25T17:45:56.631Z,19.83
2022-11-25T17:50:59.508Z,20.40
2022-11-25T17:56:03.037Z,20.70
2022-11-25T18:01:04.878Z,16.83
2022-11-25T18:06:07.002Z,17.70
2022-11-25T18:11:15.122Z,18.48
2022-11-25T18:16:18.921Z,18.67
2022-11-25T18:21:23.894Z,18.75
2022-11-25T18:26:25.563Z,13.65
2022-11-25T18:31:28.061Z,15.80
2022-11-25T18:36:29.797Z,17.83
2022-11-25T18:41:31.502Z,17.80
2022-11-25T18:46:41.373Z,17.33
2022-11-25T18:56:53.870Z,22.50
2022-11-25T19:06:57.529Z,19.45
2022-11-25T19:11:59.257Z,25.55
2022-11-25T19:17:03.405Z,23.52
2022-11-25T19:22:15.819Z,24.10
2022-11-25T19:27:24.043Z,23.08
2022-11-25T19:32:28.711Z,22.15
2022-11-25T19:37:30.869Z,23.05
2022-11-25T19:42:35.759Z,22.83
2022-11-25T19:47:37.386Z,26.05
2022-11-25T19:52:40.094Z,26.25
2022-11-25T19:57:41.803Z,30.42
2022-11-25T20:02:44.831Z,28.50
2022-11-25T20:07:47.282Z,27.77
2022-11-25T20:12:49.886Z,33.33
2022-11-25T20:17:54.826Z,32.25
2022-11-25T20:23:01.896Z,31.67
2022-11-25T20:28:07.766Z,28.70
2022-11-25T20:33:09.499Z,26.00
2022-11-25T20:38:20.443Z,22.45
2022-11-25T20:43:38.853Z,23.63
2022-11-25T20:48:40.926Z,26.27
2022-11-25T20:53:46.538Z,23.35
2022-11-25T20:58:48.745Z,26.48
2022-11-25T21:03:50.514Z,28.15
2022-11-25T21:08:58.565Z,29.48
2022-11-25T21:14:00.313Z,23.90
2022-11-25T21:19:02.292Z,26.35
2022-11-25T21:24:16.158Z,26.73
2022-11-25T21:29:21.420Z,28.20
2022-11-25T21:34:26.474Z,38.28
2022-11-25T21:39:31.491Z,24.70
2022-11-25T21:44:43.081Z,24.55
2022-11-25T21:49:45.086Z,19.70
2022-11-25T21:54:47.494Z,24.77
2022-11-25T21:59:49.566Z,30.55
2022-11-25T22:04:52.143Z,20.08
2022-11-25T22:09:53.972Z,19.00
2022-11-25T22:14:58.617Z,18.65
2022-11-25T22:20:00.617Z,21.23
2022-11-25T22:25:03.080Z,17.70
2022-11-25T22:30:05.869Z,18.17
2022-11-25T22:35:19.027Z,23.70
2022-11-25T22:40:20.701Z,15.48
2022-11-25T22:45:34.453Z,17.15
2022-11-25T22:50:36.224Z,12.85
2022-11-25T22:55:37.847Z,18.13
2022-11-25T23:00:42.847Z,19.23
2022-11-25T23:05:44.939Z,18.23
2022-11-25T23:10:47.534Z,16.08
2022-11-25T23:15:54.940Z,19.15
2022-11-25T23:20:56.702Z,21.02
2022-11-25T23:25:58.757Z,16.65
2022-11-25T23:31:02.009Z,16.15
2022-11-25T23:36:09.107Z,16.35
2022-11-25T23:41:16.954Z,16.52
2022-11-25T23:46:22.637Z,12.43
2022-11-25T23:51:25.255Z,15.10
2022-11-25T23:56:28.041Z,13.30
